createdAt,value
2023-01-23T00:01:37.314Z,100
2023-01-23T00:04:03.415Z,100
2023-01-23T00:06:29.470Z,100
2023-01-23T00:08:55.583Z,100
2023-01-23T00:11:21.759Z,100
2023-01-23T00:13:46.785Z,100
2023-01-23T00:16:12.896Z,100
2023-01-23T00:18:38.989Z,100
2023-01-23T00:21:05.092Z,100
2023-01-23T00:23:31.175Z,100
2023-01-23T00:25:57.271Z,100
2023-01-23T00:28:22.395Z,100
2023-01-23T00:30:48.495Z,100
2023-01-23T00:33:14.582Z,100
2023-01-23T00:35:40.695Z,100
2023-01-23T00:38:06.794Z,100
2023-01-23T00:40:32.890Z,100
2023-01-23T00:42:58.972Z,100
2023-01-23T00:45:25.086Z,100
2023-01-23T00:47:51.181Z,100
2023-01-23T00:50:17.284Z,100
2023-01-23T00:52:43.368Z,100
2023-01-23T00:55:09.471Z,100
2023-01-23T00:57:35.578Z,100
2023-01-23T01:00:00.688Z,100
2023-01-23T01:02:26.847Z,100
2023-01-23T01:04:52.890Z,100
2023-01-23T01:07:19.047Z,100
2023-01-23T01:09:45.068Z,100
2023-01-23T01:12:11.189Z,100
2023-01-23T01:14:37.267Z,100
2023-01-23T01:17:03.362Z,100
2023-01-23T01:19:29.462Z,100
2023-01-23T01:21:55.589Z,100
2023-01-23T01:24:21.668Z,100
2023-01-23T01:26:47.762Z,100
2023-01-23T01:29:13.888Z,100
2023-01-23T01:31:38.975Z,100
2023-01-23T01:34:05.068Z,100
2023-01-23T01:36:31.177Z,100
2023-01-23T01:38:57.333Z,100
2023-01-23T01:41:23.362Z,100
2023-01-23T01:43:49.563Z,100
2023-01-23T01:46:15.607Z,100
2023-01-23T01:48:41.662Z,100
2023-01-23T01:51:07.842Z,100
2023-01-23T01:53:33.841Z,100
2023-01-23T01:55:59.964Z,100
2023-01-23T01:58:26.038Z,100
2023-01-23T02:00:52.139Z,100
2023-01-23T02:03:17.277Z,100
2023-01-23T02:05:43.372Z,100
2023-01-23T02:08:09.459Z,100
2023-01-23T02:10:35.545Z,100
2023-01-23T02:13:01.715Z,100
2023-01-23T02:15:27.733Z,100
2023-01-23T02:17:53.842Z,100
2023-01-23T02:20:19.929Z,100
2023-01-23T02:22:46.041Z,100
2023-01-23T02:25:12.116Z,100
2023-01-23T02:27:38.230Z,100
2023-01-23T02:30:04.324Z,100
2023-01-23T02:32:30.446Z,100
2023-01-23T02:34:55.527Z,100
2023-01-23T02:37:21.615Z,100
2023-01-23T02:39:47.724Z,100
2023-01-23T02:42:13.836Z,100
2023-01-23T02:44:39.927Z,100
2023-01-23T02:49:32.134Z,100
2023-01-23T02:51:58.216Z,100
2023-01-23T02:54:24.357Z,100
2023-01-23T02:56:50.425Z,100
2023-01-23T02:59:16.512Z,100
2023-01-23T03:01:42.607Z,100
2023-01-23T03:04:08.698Z,100
2023-01-23T03:06:33.868Z,100
2023-01-23T03:08:59.926Z,100
2023-01-23T03:11:26.007Z,100
2023-01-23T03:13:52.116Z,100
2023-01-23T03:16:18.214Z,100
2023-01-23T03:18:44.353Z,100
2023-01-23T03:21:10.508Z,100
2023-01-23T03:23:36.510Z,100
2023-01-23T03:26:02.671Z,100
2023-01-23T03:28:28.705Z,100
2023-01-23T03:30:54.801Z,100
2023-01-23T03:33:20.904Z,100
2023-01-23T03:35:46.983Z,100
2023-01-23T03:38:12.101Z,100
2023-01-23T03:40:38.234Z,100
2023-01-23T03:43:04.335Z,100
2023-01-23T03:45:30.406Z,100
2023-01-23T03:47:56.501Z,100
2023-01-23T03:50:22.589Z,100
2023-01-23T03:52:55.154Z,100
2023-01-23T03:55:14.842Z,100
2023-01-23T03:57:40.884Z,100
2023-01-23T04:00:06.993Z,100
2023-01-23T04:02:33.086Z,100
2023-01-23T04:04:59.173Z,100
2023-01-23T04:07:25.289Z,100
2023-01-23T04:09:50.400Z,100
2023-01-23T04:12:16.509Z,100
2023-01-23T04:14:42.654Z,100
2023-01-23T04:17:08.692Z,100
2023-01-23T04:19:34.790Z,100
2023-01-23T04:22:00.889Z,100
2023-01-23T04:24:26.976Z,100
2023-01-23T04:26:53.080Z,100
2023-01-23T04:29:19.176Z,100
2023-01-23T04:31:45.282Z,100
2023-01-23T04:34:11.373Z,100
2023-01-23T04:36:37.473Z,100
2023-01-23T04:39:03.660Z,100
2023-01-23T04:41:28.689Z,100
2023-01-23T04:43:54.805Z,100
2023-01-23T04:46:20.879Z,100
2023-01-23T04:51:13.139Z,100
2023-01-23T04:53:39.176Z,100
2023-01-23T04:56:05.255Z,100
2023-01-23T04:58:31.348Z,100
2023-01-23T05:00:57.452Z,100
2023-01-23T05:03:28.641Z,100
2023-01-23T05:05:49.652Z,100
2023-01-23T05:08:15.747Z,100
2023-01-23T05:10:41.835Z,100
2023-01-23T05:13:06.960Z,100
2023-01-23T05:15:33.059Z,100
2023-01-23T05:17:59.151Z,100
2023-01-23T05:20:25.253Z,100
2023-01-23T05:22:51.368Z,100
2023-01-23T05:25:17.451Z,100
2023-01-23T05:27:43.555Z,100
2023-01-23T05:30:09.638Z,100
2023-01-23T05:32:35.737Z,100
2023-01-23T05:35:01.840Z,100
2023-01-23T05:37:27.936Z,100
2023-01-23T05:39:54.049Z,100
2023-01-23T05:42:20.133Z,100
2023-01-23T05:44:45.240Z,100
2023-01-23T05:47:11.341Z,100
2023-01-23T05:49:37.458Z,100
2023-01-23T05:52:03.527Z,100
2023-01-23T05:54:29.642Z,100
2023-01-23T05:56:55.773Z,100
2023-01-23T05:59:21.825Z,100
2023-01-23T06:01:47.921Z,100
2023-01-23T06:04:14.047Z,100
2023-01-23T06:06:40.111Z,100
2023-01-23T06:09:06.213Z,100
2023-01-23T06:11:32.401Z,100
2023-01-23T06:13:58.418Z,100
2023-01-23T06:16:23.540Z,100
2023-01-23T06:18:49.699Z,100
2023-01-23T06:21:15.738Z,100
2023-01-23T06:23:41.901Z,100
2023-01-23T06:26:07.944Z,100
2023-01-23T06:28:34.024Z,100
2023-01-23T06:31:00.121Z,100
2023-01-23T06:33:26.220Z,100
2023-01-23T06:35:52.424Z,100
2023-01-23T06:38:18.405Z,100
2023-01-23T06:40:44.497Z,100
2023-01-23T06:43:10.649Z,100
2023-01-23T06:45:36.696Z,100
2023-01-23T06:48:01.863Z,100
2023-01-23T06:50:27.925Z,100
2023-01-23T06:52:54.078Z,100
2023-01-23T06:55:20.105Z,100
2023-01-23T06:57:46.216Z,100
2023-01-23T07:00:12.363Z,100
2023-01-23T07:02:38.398Z,100
2023-01-23T07:05:04.506Z,100
2023-01-23T07:07:30.597Z,100
2023-01-23T07:09:56.701Z,100
2023-01-23T07:12:22.794Z,100
2023-01-23T07:14:48.984Z,100
2023-01-23T07:17:15.063Z,100
2023-01-23T07:19:40.103Z,100
2023-01-23T07:22:06.209Z,100
2023-01-23T07:24:32.321Z,100
2023-01-23T07:26:58.429Z,100
2023-01-23T07:29:24.499Z,100
2023-01-23T07:31:50.604Z,100
2023-01-23T07:34:16.722Z,100
2023-01-23T07:36:42.849Z,100
2023-01-23T07:39:08.878Z,100
2023-01-23T07:41:35.107Z,100
2023-01-23T07:44:01.139Z,100
2023-01-23T07:46:27.183Z,100
2023-01-23T07:48:53.286Z,100
2023-01-23T07:51:18.437Z,100
2023-01-23T07:53:44.474Z,100
2023-01-23T07:56:10.582Z,100
2023-01-23T07:58:36.694Z,100
2023-01-23T08:01:02.908Z,100
2023-01-23T08:03:28.895Z,100
2023-01-23T08:05:55.033Z,100
2023-01-23T08:08:21.079Z,100
2023-01-23T08:10:47.275Z,100
2023-01-23T08:13:13.326Z,100
2023-01-23T08:15:39.474Z,100
2023-01-23T08:18:05.510Z,100
2023-01-23T08:20:31.660Z,100
2023-01-23T08:22:56.728Z,100
2023-01-23T08:25:22.860Z,100
2023-01-23T08:27:48.876Z,100
2023-01-23T08:30:15.082Z,100
2023-01-23T08:32:41.086Z,100
2023-01-23T08:35:07.184Z,100
2023-01-23T08:37:32.274Z,100
2023-01-23T08:39:58.394Z,100
2023-01-23T08:42:24.527Z,100
2023-01-23T08:44:50.635Z,100
2023-01-23T08:47:16.671Z,100
2023-01-23T08:49:42.791Z,100
2023-01-23T08:52:08.875Z,100
2023-01-23T08:54:35.088Z,99.2
2023-01-23T08:57:01.115Z,95.8
2023-01-23T08:59:27.194Z,94.9
2023-01-23T09:04:19.457Z,92.7
2023-01-23T09:06:45.502Z,91.7
2023-01-23T09:09:10.634Z,91.8
2023-01-23T09:11:36.713Z,91.4
2023-01-23T09:14:02.851Z,91.5
2023-01-23T09:16:28.884Z,91.8
2023-01-23T09:19:04.621Z,92.5
2023-01-23T09:21:21.069Z,93
2023-01-23T09:23:47.149Z,93
2023-01-23T09:26:13.267Z,93
2023-01-23T09:28:39.400Z,93.3
2023-01-23T09:31:05.439Z,93.3
2023-01-23T09:33:31.524Z,93.2
2023-01-23T09:35:57.623Z,92.8
2023-01-23T09:38:23.723Z,92.3
2023-01-23T09:40:48.854Z,92
2023-01-23T09:43:14.925Z,92
2023-01-23T09:45:41.050Z,92.3
2023-01-23T09:48:07.159Z,91.6
2023-01-23T09:50:33.226Z,91.7
2023-01-23T09:52:59.351Z,92
2023-01-23T09:55:25.417Z,91.6
2023-01-23T09:57:51.511Z,91.3
2023-01-23T10:00:17.614Z,90.3
2023-01-23T10:02:43.710Z,90.3
2023-01-23T10:05:09.809Z,90.5
2023-01-23T10:07:35.902Z,90.1
2023-01-23T10:10:02.092Z,90.2
2023-01-23T10:14:53.240Z,90.3
2023-01-23T10:17:19.320Z,90.4
2023-01-23T10:19:45.415Z,89.8
2023-01-23T10:22:11.508Z,89.5
2023-01-23T10:24:37.615Z,89.3
2023-01-23T10:27:03.707Z,88.7
2023-01-23T10:29:29.793Z,89
2023-01-23T10:31:55.906Z,89.7
2023-01-23T10:34:21.989Z,89.3
2023-01-23T10:36:48.086Z,89.7
2023-01-23T10:39:14.169Z,90
2023-01-23T10:41:40.310Z,89.8
2023-01-23T10:44:05.397Z,90
2023-01-23T10:46:31.469Z,89.4
2023-01-23T10:48:57.592Z,90
2023-01-23T10:51:23.701Z,90
2023-01-23T10:53:49.764Z,89.8
2023-01-23T10:56:15.860Z,89.4
2023-01-23T10:58:41.959Z,89
2023-01-23T11:01:08.063Z,88.8
2023-01-23T11:03:34.157Z,89.5
2023-01-23T11:06:00.304Z,88.7
2023-01-23T11:08:26.349Z,88.1
2023-01-23T11:10:52.501Z,87.2
2023-01-23T11:13:18.547Z,87
2023-01-23T11:15:43.661Z,87.5
2023-01-23T11:18:09.762Z,88
2023-01-23T11:20:35.832Z,87.6
2023-01-23T11:23:01.931Z,88.9
2023-01-23T11:25:28.031Z,89
2023-01-23T11:27:54.214Z,89.1
2023-01-23T11:30:20.241Z,89.2
2023-01-23T11:32:46.318Z,88.6
2023-01-23T11:35:12.491Z,88.7
2023-01-23T11:37:38.572Z,88.2
2023-01-23T11:40:04.608Z,88.6
2023-01-23T11:42:30.713Z,88.6
2023-01-23T11:44:56.811Z,88.8
2023-01-23T11:47:21.936Z,88.6
2023-01-23T11:49:48.002Z,89.3
2023-01-23T11:52:14.100Z,89.8
2023-01-23T11:54:40.236Z,89.5
2023-01-23T11:57:06.455Z,89.1
2023-01-23T11:59:32.607Z,89.3
2023-01-23T12:01:58.552Z,89.2
2023-01-23T12:04:24.838Z,88.6
2023-01-23T12:06:50.811Z,89
2023-01-23T12:09:16.970Z,89.1
2023-01-23T12:11:43.172Z,87.8
2023-01-23T12:14:09.230Z,87.7
2023-01-23T12:16:35.257Z,87
2023-01-23T12:19:00.385Z,88.1
2023-01-23T12:21:26.525Z,88.1
2023-01-23T12:26:18.480Z,88.1
2023-01-23T12:28:44.572Z,88
2023-01-23T12:31:10.818Z,87.9
2023-01-23T12:33:36.990Z,88.3
2023-01-23T12:36:03.096Z,88.6
2023-01-23T12:38:29.145Z,88.6
2023-01-23T12:40:55.123Z,88.5
2023-01-23T12:43:21.327Z,88.5
2023-01-23T12:45:47.392Z,88.2
2023-01-23T12:48:13.538Z,88.5
2023-01-23T12:50:38.576Z,87.7
2023-01-23T12:53:04.674Z,88
2023-01-23T12:55:30.736Z,87.2
2023-01-23T12:57:56.907Z,87.4
2023-01-23T13:00:22.799Z,87.7
2023-01-23T13:02:49.091Z,87.3
2023-01-23T13:05:14.994Z,86.2
2023-01-23T13:07:41.252Z,86.3
2023-01-23T13:10:07.378Z,86.2
2023-01-23T13:12:33.417Z,85.8
2023-01-23T13:14:59.577Z,85.7
2023-01-23T13:17:25.659Z,86.2
2023-01-23T13:19:51.752Z,86.5
2023-01-23T13:22:16.866Z,86.4
2023-01-23T13:24:42.970Z,86.9
2023-01-23T13:27:09.061Z,87
2023-01-23T13:29:35.151Z,86.9
2023-01-23T13:32:01.305Z,86.3
2023-01-23T13:34:27.384Z,86.8
2023-01-23T13:36:53.435Z,87
2023-01-23T13:39:19.535Z,87
2023-01-23T13:41:45.619Z,87.4
2023-01-23T13:44:11.747Z,87.5
2023-01-23T13:46:37.800Z,87.9
2023-01-23T13:49:03.918Z,87.9
2023-01-23T13:51:29.829Z,88.5
2023-01-23T13:53:54.944Z,88.7
2023-01-23T13:56:21.174Z,88.2
2023-01-23T13:58:47.376Z,88.4
2023-01-23T14:01:13.461Z,88.2
2023-01-23T14:03:39.392Z,88.9
2023-01-23T14:06:05.522Z,89.4
2023-01-23T14:08:31.574Z,89.6
2023-01-23T14:10:57.878Z,90.3
2023-01-23T14:13:23.974Z,90
2023-01-23T14:15:50.002Z,89.6
2023-01-23T14:18:16.012Z,89.6
2023-01-23T14:20:42.219Z,90
2023-01-23T14:23:08.296Z,90
2023-01-23T14:25:33.340Z,89.6
2023-01-23T14:27:59.455Z,90.3
2023-01-23T14:30:25.585Z,90.1
2023-01-23T14:32:51.674Z,90.2
2023-01-23T14:35:17.739Z,90.6
2023-01-23T14:37:43.817Z,90.4
2023-01-23T14:40:09.985Z,90.2
2023-01-23T14:42:36.045Z,90.6
2023-01-23T14:45:02.102Z,90.5
2023-01-23T14:47:28.239Z,90.8
2023-01-23T14:49:54.328Z,90.7
2023-01-23T14:52:20.436Z,91.1
2023-01-23T14:54:46.544Z,91.4
2023-01-23T14:57:11.815Z,91.3
2023-01-23T14:59:37.770Z,91.4
2023-01-23T15:02:03.780Z,91.4
2023-01-23T15:04:29.768Z,91.6
2023-01-23T15:06:56.049Z,91.9
2023-01-23T15:09:22.157Z,91.7
2023-01-23T15:11:48.239Z,91.7
2023-01-23T15:14:14.300Z,92.2
2023-01-23T15:16:40.413Z,92.6
2023-01-23T15:19:06.538Z,92.4
2023-01-23T15:21:32.691Z,92.5
2023-01-23T15:23:58.681Z,92.4
2023-01-23T15:26:24.812Z,92.5
2023-01-23T15:28:49.890Z,92.7
2023-01-23T15:31:15.850Z,93
2023-01-23T15:33:42.091Z,92.5
2023-01-23T15:36:08.028Z,92.6
2023-01-23T15:38:34.354Z,92.7
2023-01-23T15:41:00.364Z,92.6
2023-01-23T15:43:26.487Z,92.7
2023-01-23T15:45:52.604Z,92.6
2023-01-23T15:48:18.574Z,92.7
2023-01-23T15:50:44.663Z,92.9
2023-01-23T15:53:10.931Z,92.8
2023-01-23T15:55:37.009Z,92.8
2023-01-23T15:58:03.126Z,93.1
2023-01-23T16:00:28.226Z,93.1
2023-01-23T16:02:54.278Z,93
2023-01-23T16:05:20.400Z,93.1
2023-01-23T16:07:46.524Z,93.5
2023-01-23T16:10:12.615Z,93.3
2023-01-23T16:12:38.684Z,92.8
2023-01-23T16:15:04.776Z,92.9
2023-01-23T16:17:30.905Z,93.1
2023-01-23T16:19:56.983Z,93.1
2023-01-23T16:22:22.896Z,92.9
2023-01-23T16:24:49.165Z,92.6
2023-01-23T16:27:15.252Z,93
2023-01-23T16:29:41.411Z,93.2
2023-01-23T16:32:06.440Z,92.9
2023-01-23T16:34:32.366Z,93
2023-01-23T16:36:58.667Z,93.2
2023-01-23T16:39:24.795Z,93.5
2023-01-23T16:41:50.862Z,93.5
2023-01-23T16:44:16.809Z,93.2
2023-01-23T16:46:41.990Z,93.5
2023-01-23T16:49:08.165Z,93
2023-01-23T16:51:34.296Z,93.2
2023-01-23T16:54:00.350Z,93.2
2023-01-23T16:56:26.426Z,93.5
2023-01-23T16:58:52.523Z,93.7
2023-01-23T17:01:18.649Z,93.5
2023-01-23T17:03:44.792Z,93.5
2023-01-23T17:06:10.825Z,93.2
2023-01-23T17:08:36.925Z,93.3
2023-01-23T17:11:02.839Z,93.2
2023-01-23T17:13:29.109Z,92.9
2023-01-23T17:15:55.230Z,92.7
2023-01-23T17:18:20.380Z,92.7
2023-01-23T17:20:46.450Z,93.3
2023-01-23T17:23:12.525Z,93.2
2023-01-23T17:25:38.613Z,93.3
2023-01-23T17:28:04.728Z,93.2
2023-01-23T17:30:30.752Z,93.3
2023-01-23T17:32:56.896Z,93.3
2023-01-23T17:35:22.990Z,93.4
2023-01-23T17:37:49.079Z,93.4
2023-01-23T17:40:15.189Z,93.2
2023-01-23T17:42:41.307Z,93.3
2023-01-23T17:45:07.394Z,93.3
2023-01-23T17:47:33.413Z,93.4
2023-01-23T17:49:58.561Z,93.4
2023-01-23T17:52:24.643Z,93.5
2023-01-23T17:54:50.787Z,93.7
2023-01-23T17:57:16.929Z,93.6
2023-01-23T17:59:43.028Z,93.6
2023-01-23T18:02:08.904Z,93.6
2023-01-23T18:04:35.170Z,93.6
2023-01-23T18:07:01.283Z,93.4
2023-01-23T18:09:27.390Z,93.3
2023-01-23T18:11:53.436Z,93
2023-01-23T18:14:19.559Z,93.4
2023-01-23T18:16:45.617Z,93.3
2023-01-23T18:19:11.788Z,93.4
2023-01-23T18:21:36.700Z,93.7
2023-01-23T18:24:02.968Z,93.5
2023-01-23T18:26:29.057Z,93.9
2023-01-23T18:28:55.042Z,93.8
2023-01-23T18:31:21.102Z,93.8
2023-01-23T18:33:47.342Z,93.8
2023-01-23T18:36:13.521Z,93.7
2023-01-23T18:38:39.446Z,93.8
2023-01-23T18:41:05.652Z,93.4
2023-01-23T18:43:31.777Z,93.5
2023-01-23T18:45:57.850Z,93.6
2023-01-23T18:48:23.891Z,93.7
2023-01-23T18:50:49.968Z,93.6
2023-01-23T18:53:15.170Z,93.6
2023-01-23T18:55:41.094Z,93.8
2023-01-23T18:58:07.286Z,93.8
2023-01-23T19:00:33.250Z,93.8
2023-01-23T19:02:59.533Z,93.8
2023-01-23T19:05:25.661Z,93.7
2023-01-23T19:07:51.602Z,93.8
2023-01-23T19:10:17.802Z,93.8
2023-01-23T19:12:43.918Z,93.7
2023-01-23T19:15:10.028Z,94
2023-01-23T19:17:35.928Z,94.1
2023-01-23T19:20:02.034Z,94.2
2023-01-23T19:22:28.255Z,94.1
2023-01-23T19:24:53.382Z,94.1
2023-01-23T19:27:19.503Z,93.9
2023-01-23T19:29:45.432Z,94
2023-01-23T19:32:11.513Z,93.7
2023-01-23T19:34:37.646Z,93.9
2023-01-23T19:37:03.709Z,94.2
2023-01-23T19:39:29.883Z,94.3
2023-01-23T19:41:56.061Z,94.4
2023-01-23T19:44:22.157Z,94.7
2023-01-23T19:46:48.234Z,94.9
2023-01-23T19:49:14.359Z,94.8
2023-01-23T19:51:40.413Z,95.1
2023-01-23T19:54:06.546Z,95.2
2023-01-23T19:56:31.503Z,95.4
2023-01-23T19:58:57.748Z,95.4
2023-01-23T20:01:23.882Z,95.5
2023-01-23T20:03:49.966Z,95.6
2023-01-23T20:06:16.048Z,95.8
2023-01-23T20:08:42.132Z,95.8
2023-01-23T20:11:08.286Z,95.8
2023-01-23T20:13:34.301Z,95.8
2023-01-23T20:16:00.472Z,95.8
2023-01-23T20:18:26.465Z,95.6
2023-01-23T20:20:52.629Z,95.4
2023-01-23T20:23:18.717Z,95.3
2023-01-23T20:25:44.685Z,95.2
2023-01-23T20:28:09.792Z,95
2023-01-23T20:30:35.856Z,95
2023-01-23T20:33:02.084Z,95
2023-01-23T20:35:28.274Z,95
2023-01-23T20:37:54.341Z,94.7
2023-01-23T20:40:20.417Z,95
2023-01-23T20:42:46.481Z,94.8
2023-01-23T20:45:12.584Z,94.9
2023-01-23T20:47:38.750Z,94.8
2023-01-23T20:50:04.837Z,94.8
2023-01-23T20:52:30.763Z,94.7
2023-01-23T20:54:56.831Z,94.6
2023-01-23T20:57:22.924Z,94.7
2023-01-23T20:59:48.195Z,94.8
2023-01-23T21:02:14.302Z,94.8
2023-01-23T21:04:40.268Z,94.9
2023-01-23T21:07:06.479Z,94.8
2023-01-23T21:09:32.613Z,94.9
2023-01-23T21:11:58.773Z,94.8
2023-01-23T21:14:24.621Z,94.7
2023-01-23T21:16:50.884Z,94.8
2023-01-23T21:19:16.977Z,94.9
2023-01-23T21:21:43.047Z,94.6
2023-01-23T21:24:09.252Z,94.7
2023-01-23T21:26:35.343Z,94.9
2023-01-23T21:29:01.309Z,94.7
2023-01-23T21:31:26.515Z,94.7
2023-01-23T21:33:52.445Z,94.7
2023-01-23T21:36:18.724Z,94.8
2023-01-23T21:38:44.601Z,94.6
2023-01-23T21:41:10.700Z,94.8
2023-01-23T21:43:36.790Z,94.9
2023-01-23T21:46:03.071Z,94.8
2023-01-23T21:48:29.201Z,95
2023-01-23T21:50:55.260Z,95.1
2023-01-23T21:53:21.404Z,95.4
2023-01-23T21:55:47.320Z,95.4
2023-01-23T21:58:13.562Z,95.5
2023-01-23T22:00:39.665Z,95.4
2023-01-23T22:03:04.761Z,95.6
2023-01-23T22:05:30.730Z,95.5
2023-01-23T22:07:56.957Z,95.6
2023-01-23T22:10:23.039Z,95.6
2023-01-23T22:12:49.128Z,95.8
2023-01-23T22:15:18.448Z,95.5
2023-01-23T22:17:41.141Z,95.6
2023-01-23T22:20:07.475Z,95.4
2023-01-23T22:22:33.340Z,95.4
2023-01-23T22:24:59.674Z,95.3
2023-01-23T22:27:25.706Z,95.2
2023-01-23T22:29:51.798Z,95.3
2023-01-23T22:32:17.907Z,95.3
2023-01-23T22:34:43.028Z,95.2
2023-01-23T22:37:09.121Z,95.4
2023-01-23T22:39:35.239Z,95.2
2023-01-23T22:42:01.330Z,95.3
2023-01-23T22:44:27.347Z,95.4
2023-01-23T22:46:53.487Z,95.3
2023-01-23T22:49:19.593Z,95.5
2023-01-23T22:51:45.529Z,95.4
2023-01-23T22:54:11.804Z,95.6
2023-01-23T22:56:37.700Z,96
2023-01-23T22:59:03.792Z,95.8
2023-01-23T23:01:30.045Z,95.8
2023-01-23T23:03:55.987Z,95.8
2023-01-23T23:06:22.255Z,95.6
2023-01-23T23:08:47.412Z,95.6
2023-01-23T23:11:13.461Z,95.8
2023-01-23T23:13:39.432Z,95.6
2023-01-23T23:16:05.521Z,95.8
2023-01-23T23:18:31.719Z,96
2023-01-23T23:20:57.781Z,96
2023-01-23T23:23:23.919Z,95.8
2023-01-23T23:25:50.042Z,95.8
2023-01-23T23:28:16.140Z,95.8
2023-01-23T23:30:42.232Z,96
2023-01-23T23:33:08.200Z,96.1
2023-01-23T23:35:34.372Z,96.4
2023-01-23T23:38:00.528Z,96.6
2023-01-23T23:40:25.679Z,96.8
2023-01-23T23:42:51.699Z,96.4
2023-01-23T23:45:17.787Z,96.3
2023-01-23T23:47:43.990Z,96.3
2023-01-23T23:50:10.052Z,96.1
2023-01-23T23:52:36.059Z,96.3
2023-01-23T23:55:02.346Z,96.1
2023-01-23T23:57:28.337Z,96.1
2023-01-23T23:59:54.315Z,95.8
